Time,TemperatureF,DewpointF,PressureIn,WindDirection,WindDirectionDegrees,WindSpeedMPH,WindSpeedGustMPH,Humidity,HourlyPrecipIn,Conditions,Clouds,dailyrainin,SoftwareType,DateUTC
2013-06-17 00:03:00,73.0,62.6,29.90,SW,225,1.0,5.0,70,0.00,,,-99.99,WeatherLink 5.7,2013-06-17 04:03:00,
2013-06-17 00:13:00,72.7,62.8,29.90,SW,225,2.0,5.0,71,0.00,,,-99.99,WeatherLink 5.7,2013-06-17 04:13:00,
2013-06-17 00:23:00,72.6,62.7,29.91,SW,225,2.0,5.0,71,0.00,,,-99.99,WeatherLink 5.7,2013-06-17 04:23:00,
2013-06-17 00:33:00,72.3,63.2,29.91,SW,225,3.0,5.0,73,0.00,,,-99.99,WeatherLink 5.7,2013-06-17 04:33:00,
2013-06-17 00:43:00,72.2,62.7,29.91,SW,225,2.0,4.0,72,0.00,,,-99.99,WeatherLink 5.7,2013-06-17 04:43:00,
2013-06-17 00:53:00,72.1,63.4,29.91,SW,225,3.0,5.0,74,0.00,,,-99.99,WeatherLink 5.7,2013-06-17 04:53:00,
2013-06-17 01:03:00,71.9,63.2,29.91,SW,225,2.0,4.0,74,0.00,,,-99.99,WeatherLink 5.7,2013-06-17 05:03:00,
2013-06-17 01:13:00,71.8,63.1,29.91,SW,225,2.0,5.0,74,0.00,,,-99.99,WeatherLink 5.7,2013-06-17 05:13:00,
2013-06-17 01:23:00,71.6,62.9,29.91,SW,225,2.0,5.0,74,0.00,,,-99.99,WeatherLink 5.7,2013-06-17 05:23:00,
2013-06-17 01:33:00,71.5,63.2,29.91,SW,225,1.0,4.0,75,0.00,,,-99.99,WeatherLink 5.7,2013-06-17 05:33:00,
2013-06-17 01:43:00,71.3,63.0,29.91,SW,225,0.0,4.0,75,0.00,,,-99.99,WeatherLink 5.7,2013-06-17 05:43:00,
2013-06-17 01:53:00,71.0,63.1,29.91,SW,225,0.0,4.0,76,0.00,,,-99.99,WeatherLink 5.7,2013-06-17 05:53:00,
2013-06-17 02:03:00,70.8,62.9,29.91,SW,225,0.0,3.0,76,0.00,,,-99.99,WeatherLink 5.7,2013-06-17 06:03:00,
2013-06-17 02:13:00,70.7,62.8,29.91,SW,225,0.0,3.0,76,0.00,,,-99.99,WeatherLink 5.7,2013-06-17 06:13:00,
2013-06-17 02:23:00,70.6,63.0,29.91,SW,225,0.0,4.0,77,0.00,,,-99.99,WeatherLink 5.7,2013-06-17 06:23:00,
2013-06-17 02:33:00,70.5,62.9,29.91,SW,225,0.0,3.0,77,0.00,,,-99.99,WeatherLink 5.7,2013-06-17 06:33:00,
2013-06-17 02:43:00,70.3,62.7,29.91,SW,225,1.0,5.0,77,0.00,,,-99.99,WeatherLink 5.7,2013-06-17 06:43:00,
2013-06-17 02:53:00,70.3,62.7,29.92,SW,225,2.0,7.0,77,0.00,,,-99.99,WeatherLink 5.7,2013-06-17 06:53:00,
2013-06-17 03:03:00,70.1,62.9,29.92,SW,225,3.0,5.0,78,0.00,,,-99.99,WeatherLink 5.7,2013-06-17 07:03:00,
2013-06-17 03:13:00,70.1,62.9,29.91,SW,225,2.0,6.0,78,0.00,,,-99.99,WeatherLink 5.7,2013-06-17 07:13:00,
2013-06-17 03:25:00,69.9,62.7,29.91,SW,225,1.0,4.0,78,0.00,,,-99.99,WeatherLink 5.7,2013-06-17 07:25:00,
2013-06-17 03:33:00,69.8,62.6,29.92,SW,225,1.0,4.0,78,0.00,,,-99.99,WeatherLink 5.7,2013-06-17 07:33:00,
2013-06-17 03:43:00,69.7,62.9,29.92,SW,225,1.0,5.0,79,0.00,,,-99.99,WeatherLink 5.7,2013-06-17 07:43:00,
2013-06-17 03:54:00,69.5,62.7,29.92,SW,225,2.0,5.0,79,0.00,,,-99.99,WeatherLink 5.7,2013-06-17 07:54:00,
2013-06-17 04:05:00,69.3,62.5,29.92,SW,225,0.0,3.0,79,0.00,,,-99.99,WeatherLink 5.7,2013-06-17 08:05:00,
2013-06-17 04:14:00,69.3,62.9,29.92,SW,225,1.0,3.0,80,0.00,,,-99.99,WeatherLink 5.7,2013-06-17 08:14:00,
2013-06-17 04:23:00,69.3,62.9,29.93,SW,225,2.0,4.0,80,0.00,,,-99.99,WeatherLink 5.7,2013-06-17 08:23:00,
2013-06-17 04:33:00,69.1,62.7,29.93,SW,225,2.0,4.0,80,0.00,,,-99.99,WeatherLink 5.7,2013-06-17 08:33:00,
2013-06-17 04:43:00,68.9,62.5,29.93,SW,225,0.0,2.0,80,0.00,,,-99.99,WeatherLink 5.7,2013-06-17 08:43:00,
2013-06-17 04:53:00,68.7,62.6,29.93,SW,225,0.0,4.0,81,0.00,,,-99.99,WeatherLink 5.7,2013-06-17 08:53:00,
2013-06-17 05:03:00,68.4,62.7,29.93,SW,225,0.0,2.0,82,0.00,,,-99.99,WeatherLink 5.7,2013-06-17 09:03:00,
2013-06-17 05:13:00,68.3,62.9,29.93,SW,225,0.0,1.0,83,0.00,,,-99.99,WeatherLink 5.7,2013-06-17 09:13:00,
2013-06-17 05:23:00,68.1,62.7,29.93,SW,225,1.0,5.0,83,0.00,,,-99.99,WeatherLink 5.7,2013-06-17 09:23:00,
2013-06-17 05:33:00,68.2,63.2,29.94,SW,225,0.0,3.0,84,0.00,,,-99.99,WeatherLink 5.7,2013-06-17 09:33:00,
2013-06-17 05:43:00,68.3,62.9,29.94,SW,225,1.0,3.0,83,0.00,,,-99.99,WeatherLink 5.7,2013-06-17 09:43:00,
2013-06-17 05:53:00,68.4,63.0,29.94,SW,225,1.0,4.0,83,0.00,,,-99.99,WeatherLink 5.7,2013-06-17 09:53:00,
2013-06-17 06:03:00,68.3,62.9,29.94,SW,225,0.0,2.0,83,0.00,,,-99.99,WeatherLink 5.7,2013-06-17 10:03:00,
2013-06-17 06:13:00,68.3,62.9,29.94,SW,225,1.0,5.0,83,0.00,,,-99.99,WeatherLink 5.7,2013-06-17 10:13:00,
2013-06-17 06:23:00,68.3,63.3,29.94,SW,225,2.0,5.0,84,0.00,,,-99.99,WeatherLink 5.7,2013-06-17 10:23:00,
2013-06-17 06:34:00,68.6,63.2,29.95,SW,225,1.0,4.0,83,0.00,,,-99.99,WeatherLink 5.7,2013-06-17 10:34:00,
2013-06-17 06:43:00,68.8,63.1,29.95,SW,225,2.0,5.0,82,0.00,,,-99.99,WeatherLink 5.7,2013-06-17 10:43:00,
2013-06-17 06:53:00,68.9,63.5,29.95,SW,225,2.0,6.0,83,0.00,,,-99.99,WeatherLink 5.7,2013-06-17 10:53:00,
2013-06-17 07:03:00,69.1,63.7,29.95,SW,225,2.0,6.0,83,0.00,,,-99.99,WeatherLink 5.7,2013-06-17 11:03:00,
2013-06-17 07:13:00,69.1,63.4,29.94,SW,225,2.0,6.0,82,0.00,,,-99.99,WeatherLink 5.7,2013-06-17 11:13:00,
2013-06-17 07:23:00,69.4,63.3,29.95,SW,225,2.0,5.0,81,0.00,,,-99.99,WeatherLink 5.7,2013-06-17 11:23:00,
2013-06-17 07:33:00,69.5,63.4,29.95,SW,225,2.0,5.0,81,0.00,,,-99.99,WeatherLink 5.7,2013-06-17 11:33:00,
2013-06-17 07:43:00,69.8,63.3,29.95,SW,225,1.0,5.0,80,0.00,,,-99.99,WeatherLink 5.7,2013-06-17 11:43:00,
2013-06-17 07:53:00,70.2,63.4,29.95,SW,225,1.0,4.0,79,0.00,,,-99.99,WeatherLink 5.7,2013-06-17 11:53:00,
2013-06-17 08:03:00,71.1,63.5,29.95,SW,225,1.0,7.0,77,0.00,,,-99.99,WeatherLink 5.7,2013-06-17 12:03:00,
2013-06-17 08:13:00,71.7,63.7,29.95,SW,225,1.0,4.0,76,0.00,,,-99.99,WeatherLink 5.7,2013-06-17 12:13:00,
2013-06-17 08:23:00,72.1,63.4,29.95,SW,225,1.0,5.0,74,0.00,,,-99.99,WeatherLink 5.7,2013-06-17 12:23:00,
2013-06-17 08:33:00,72.7,63.5,29.95,WSW,247,3.0,9.0,73,0.00,,,-99.99,WeatherLink 5.7,2013-06-17 12:33:00,
2013-06-17 08:43:00,73.0,63.4,29.95,WSW,247,5.0,11.0,72,0.00,,,-99.99,WeatherLink 5.7,2013-06-17 12:43:00,
2013-06-17 08:54:00,73.5,63.9,29.95,WSW,247,4.0,10.0,72,0.00,,,-99.99,WeatherLink 5.7,2013-06-17 12:54:00,
2013-06-17 09:03:00,74.2,63.4,29.94,WSW,247,5.0,11.0,69,0.00,,,-99.99,WeatherLink 5.7,2013-06-17 13:03:00,
2013-06-17 09:14:00,74.9,63.6,29.94,West,270,4.0,10.0,68,0.00,,,-99.99,WeatherLink 5.7,2013-06-17 13:14:00,
2013-06-17 09:23:00,75.8,63.6,29.94,West,270,4.0,9.0,66,0.00,,,-99.99,WeatherLink 5.7,2013-06-17 13:23:00,
2013-06-17 09:33:00,76.2,62.7,29.94,WNW,292,5.0,10.0,63,0.00,,,-99.99,WeatherLink 5.7,2013-06-17 13:33:00,
2013-06-17 09:43:00,76.7,62.2,29.94,West,270,6.0,12.0,61,0.00,,,-99.99,WeatherLink 5.7,2013-06-17 13:43:00,
2013-06-17 09:54:00,76.9,62.9,29.94,West,270,5.0,11.0,62,0.00,,,-99.99,WeatherLink 5.7,2013-06-17 13:54:00,
2013-06-17 10:03:00,77.6,62.6,29.94,West,270,4.0,10.0,60,0.00,,,-99.99,WeatherLink 5.7,2013-06-17 14:03:00,
2013-06-17 10:13:00,78.1,63.1,29.94,SW,225,4.0,10.0,60,0.00,,,-99.99,WeatherLink 5.7,2013-06-17 14:13:00,
2013-06-17 10:23:00,78.6,63.1,29.93,WSW,247,4.0,9.0,59,0.00,,,-99.99,WeatherLink 5.7,2013-06-17 14:23:00,
2013-06-17 10:33:00,79.1,62.6,29.93,West,270,4.0,9.0,57,0.00,,,-99.99,WeatherLink 5.7,2013-06-17 14:33:00,
2013-06-17 10:43:00,79.2,62.7,29.93,WSW,247,6.0,12.0,57,0.00,,,-99.99,WeatherLink 5.7,2013-06-17 14:43:00,
2013-06-17 10:53:00,79.8,61.1,29.92,WNW,292,4.0,10.0,53,0.00,,,-99.99,WeatherLink 5.7,2013-06-17 14:53:00,
2013-06-17 11:03:00,80.3,62.1,29.92,NW,315,3.0,10.0,54,0.00,,,-99.99,WeatherLink 5.7,2013-06-17 15:03:00,
2013-06-17 11:13:00,80.6,62.9,29.91,WSW,247,2.0,8.0,55,0.00,,,-99.99,WeatherLink 5.7,2013-06-17 15:13:00,
2013-06-17 11:23:00,81.0,61.7,29.92,SW,225,5.0,12.0,52,0.00,,,-99.99,WeatherLink 5.7,2013-06-17 15:23:00,
2013-06-17 11:33:00,81.4,62.1,29.92,WSW,247,4.0,11.0,52,0.00,,,-99.99,WeatherLink 5.7,2013-06-17 15:33:00,
2013-06-17 11:43:00,81.5,62.2,29.92,WSW,247,5.0,11.0,52,0.00,,,-99.99,WeatherLink 5.7,2013-06-17 15:43:00,
2013-06-17 11:54:00,81.4,62.1,29.92,SW,225,6.0,12.0,52,0.00,,,-99.99,WeatherLink 5.7,2013-06-17 15:54:00,
2013-06-17 12:03:00,81.3,62.0,29.92,WSW,247,3.0,8.0,52,0.00,,,-99.99,WeatherLink 5.7,2013-06-17 16:03:00,
2013-06-17 12:13:00,81.6,61.7,29.92,West,270,4.0,10.0,51,0.00,,,-99.99,WeatherLink 5.7,2013-06-17 16:13:00,
2013-06-17 12:23:00,82.2,61.1,29.91,SW,225,4.0,12.0,49,0.00,,,-99.99,WeatherLink 5.7,2013-06-17 16:23:00,
2013-06-17 12:33:00,82.2,61.1,29.92,West,270,6.0,14.0,49,0.00,,,-99.99,WeatherLink 5.7,2013-06-17 16:33:00,
2013-06-17 12:43:00,82.3,61.2,29.91,SW,225,5.0,14.0,49,0.00,,,-99.99,WeatherLink 5.7,2013-06-17 16:43:00,
2013-06-17 12:53:00,82.8,61.1,29.91,SW,225,3.0,8.0,48,0.00,,,-99.99,WeatherLink 5.7,2013-06-17 16:53:00,
2013-06-17 13:03:00,83.1,60.2,29.91,SW,225,7.0,15.0,46,0.00,,,-99.99,WeatherLink 5.7,2013-06-17 17:03:00,
2013-06-17 13:13:00,83.3,61.0,29.91,SSW,202,3.0,13.0,47,0.00,,,-99.99,WeatherLink 5.7,2013-06-17 17:13:00,
2013-06-17 13:23:00,83.9,60.9,29.91,SW,225,3.0,10.0,46,0.00,,,-99.99,WeatherLink 5.7,2013-06-17 17:23:00,
2013-06-17 13:33:00,83.1,61.4,29.91,SW,225,5.0,11.0,48,0.00,,,-99.99,WeatherLink 5.7,2013-06-17 17:33:00,
2013-06-17 13:43:00,83.1,61.4,29.90,WSW,247,4.0,10.0,48,0.00,,,-99.99,WeatherLink 5.7,2013-06-17 17:43:00,
2013-06-17 13:53:00,83.2,61.5,29.90,SW,225,5.0,9.0,48,0.00,,,-99.99,WeatherLink 5.7,2013-06-17 17:53:00,
2013-06-17 14:03:00,83.4,61.1,29.90,SW,225,4.0,12.0,47,0.00,,,-99.99,WeatherLink 5.7,2013-06-17 18:03:00,
2013-06-17 14:13:00,83.3,60.4,29.89,West,270,5.0,12.0,46,0.00,,,-99.99,WeatherLink 5.7,2013-06-17 18:13:00,
2013-06-17 14:24:00,83.7,60.7,29.89,SW,225,8.0,17.0,46,0.00,,,-99.99,WeatherLink 5.7,2013-06-17 18:24:00,
2013-06-17 14:33:00,84.0,60.4,29.89,SW,225,5.0,14.0,45,0.00,,,-99.99,WeatherLink 5.7,2013-06-17 18:33:00,
2013-06-17 14:43:00,84.7,59.7,29.88,WSW,247,6.0,15.0,43,0.00,,,-99.99,WeatherLink 5.7,2013-06-17 18:43:00,
2013-06-17 14:53:00,84.4,60.7,29.88,SW,225,4.0,13.0,45,0.00,,,-99.99,WeatherLink 5.7,2013-06-17 18:53:00,
2013-06-17 15:03:00,83.7,58.8,29.89,West,270,5.0,10.0,43,0.00,,,-99.99,WeatherLink 5.7,2013-06-17 19:03:00,
2013-06-17 15:13:00,82.4,59.5,29.91,West,270,9.0,22.0,46,0.01,,,-99.99,WeatherLink 5.7,2013-06-17 19:13:00,
2013-06-17 15:23:00,76.8,61.9,29.90,NW,315,6.0,17.0,60,0.01,,,-99.99,WeatherLink 5.7,2013-06-17 19:23:00,
2013-06-17 15:33:00,74.0,59.7,29.90,NNW,337,2.0,7.0,61,0.01,,,-99.99,WeatherLink 5.7,2013-06-17 19:33:00,
2013-06-17 15:43:00,73.9,59.6,29.89,NNW,337,1.0,4.0,61,0.01,,,-99.99,WeatherLink 5.7,2013-06-17 19:43:00,
2013-06-17 15:54:00,74.5,60.6,29.89,NNW,337,1.0,3.0,62,0.01,,,-99.99,WeatherLink 5.7,2013-06-17 19:54:00,
2013-06-17 16:03:00,75.1,61.2,29.89,NW,315,3.0,7.0,62,0.01,,,-99.99,WeatherLink 5.7,2013-06-17 20:03:00,
2013-06-17 16:13:00,75.5,61.6,29.89,NW,315,2.0,6.0,62,0.00,,,-99.99,WeatherLink 5.7,2013-06-17 20:13:00,
2013-06-17 16:23:00,76.4,61.5,29.88,NW,315,2.0,6.0,60,0.00,,,-99.99,WeatherLink 5.7,2013-06-17 20:23:00,
2013-06-17 16:33:00,77.7,61.7,29.89,WSW,247,3.0,8.0,58,0.00,,,-99.99,WeatherLink 5.7,2013-06-17 20:33:00,
2013-06-17 16:43:00,79.1,60.0,29.88,West,270,3.0,9.0,52,0.00,,,-99.99,WeatherLink 5.7,2013-06-17 20:43:00,
2013-06-17 16:53:00,80.2,59.3,29.88,WSW,247,3.0,9.0,49,0.00,,,-99.99,WeatherLink 5.7,2013-06-17 20:53:00,
2013-06-17 17:03:00,81.1,59.6,29.88,WSW,247,4.0,12.0,48,0.00,,,-99.99,WeatherLink 5.7,2013-06-17 21:03:00,
2013-06-17 17:13:00,81.7,58.3,29.88,SW,225,7.0,16.0,45,0.00,,,-99.99,WeatherLink 5.7,2013-06-17 21:13:00,
2013-06-17 17:23:00,81.8,57.1,29.88,SW,225,5.0,16.0,43,0.00,,,-99.99,WeatherLink 5.7,2013-06-17 21:23:00,
2013-06-17 17:33:00,81.7,55.7,29.88,SW,225,7.0,16.0,41,0.00,,,-99.99,WeatherLink 5.7,2013-06-17 21:33:00,
2013-06-17 17:43:00,82.0,56.0,29.88,WSW,247,3.0,10.0,41,0.00,,,-99.99,WeatherLink 5.7,2013-06-17 21:43:00,
2013-06-17 17:54:00,82.4,57.0,29.88,SW,225,4.0,9.0,42,0.00,,,-99.99,WeatherLink 5.7,2013-06-17 21:54:00,
2013-06-17 18:03:00,82.8,57.4,29.87,SW,225,5.0,10.0,42,0.00,,,-99.99,WeatherLink 5.7,2013-06-17 22:03:00,
2013-06-17 18:13:00,83.0,56.9,29.88,West,270,5.0,10.0,41,0.00,,,-99.99,WeatherLink 5.7,2013-06-17 22:13:00,
2013-06-17 18:23:00,83.3,57.8,29.88,WSW,247,4.0,10.0,42,0.00,,,-99.99,WeatherLink 5.7,2013-06-17 22:23:00,
2013-06-17 18:33:00,83.5,59.3,29.87,WSW,247,5.0,13.0,44,0.00,,,-99.99,WeatherLink 5.7,2013-06-17 22:33:00,
2013-06-17 18:43:00,83.5,59.3,29.88,WSW,247,5.0,12.0,44,0.00,,,-99.99,WeatherLink 5.7,2013-06-17 22:43:00,
2013-06-17 18:53:00,83.3,60.4,29.88,West,270,4.0,12.0,46,0.00,,,-99.99,WeatherLink 5.7,2013-06-17 22:53:00,
2013-06-17 19:03:00,83.2,59.6,29.88,WSW,247,3.0,9.0,45,0.00,,,-99.99,WeatherLink 5.7,2013-06-17 23:03:00,
2013-06-17 19:13:00,82.7,59.8,29.89,SW,225,4.0,11.0,46,0.00,,,-99.99,WeatherLink 5.7,2013-06-17 23:13:00,
2013-06-17 19:23:00,81.6,60.0,29.89,SW,225,4.0,12.0,48,0.00,,,-99.99,WeatherLink 5.7,2013-06-17 23:23:00,
2013-06-17 19:33:00,81.0,60.6,29.89,SW,225,4.0,10.0,50,0.00,,,-99.99,WeatherLink 5.7,2013-06-17 23:33:00,
2013-06-17 19:43:00,80.7,60.3,29.90,SW,225,3.0,9.0,50,0.00,,,-99.99,WeatherLink 5.7,2013-06-17 23:43:00,
2013-06-17 19:53:00,80.4,60.1,29.90,SW,225,1.0,5.0,50,0.00,,,-99.99,WeatherLink 5.7,2013-06-17 23:53:00,
2013-06-17 20:03:00,80.1,60.3,29.90,SW,225,1.0,5.0,51,0.00,,,-99.99,WeatherLink 5.7,2013-06-18 00:03:00,
2013-06-17 20:13:00,79.7,60.0,29.90,SW,225,0.0,4.0,51,0.00,,,-99.99,WeatherLink 5.7,2013-06-18 00:13:00,
2013-06-17 20:23:00,79.2,61.1,29.90,SW,225,1.0,6.0,54,0.00,,,-99.99,WeatherLink 5.7,2013-06-18 00:23:00,
2013-06-17 20:33:00,78.5,61.5,29.90,SSW,202,2.0,6.0,56,0.00,,,-99.99,WeatherLink 5.7,2013-06-18 00:33:00,
2013-06-17 20:43:00,78.1,61.6,29.90,SSW,202,1.0,4.0,57,0.00,,,-99.99,WeatherLink 5.7,2013-06-18 00:43:00,
2013-06-17 20:53:00,77.8,61.3,29.91,SSW,202,0.0,3.0,57,0.00,,,-99.99,WeatherLink 5.7,2013-06-18 00:53:00,
2013-06-17 21:03:00,77.6,61.2,29.91,SSW,202,1.0,5.0,57,0.00,,,-99.99,WeatherLink 5.7,2013-06-18 01:03:00,
2013-06-17 21:13:00,77.4,61.0,29.91,SSW,202,0.0,2.0,57,0.00,,,-99.99,WeatherLink 5.7,2013-06-18 01:13:00,
2013-06-17 21:23:00,77.3,60.9,29.92,SSW,202,0.0,2.0,57,0.00,,,-99.99,WeatherLink 5.7,2013-06-18 01:23:00,
2013-06-17 21:33:00,76.9,60.5,29.92,SSW,202,0.0,3.0,57,0.00,,,-99.99,WeatherLink 5.7,2013-06-18 01:33:00,
2013-06-17 21:43:00,76.7,60.3,29.92,SSW,202,0.0,3.0,57,0.00,,,-99.99,WeatherLink 5.7,2013-06-18 01:43:00,
2013-06-17 21:53:00,76.5,60.1,29.92,SSW,202,1.0,4.0,57,0.00,,,-99.99,WeatherLink 5.7,2013-06-18 01:53:00,
2013-06-17 22:03:00,76.3,59.9,29.93,SSW,202,1.0,4.0,57,0.00,,,-99.99,WeatherLink 5.7,2013-06-18 02:03:00,
2013-06-17 22:13:00,76.1,60.2,29.93,SSW,202,0.0,3.0,58,0.00,,,-99.99,WeatherLink 5.7,2013-06-18 02:13:00,
2013-06-17 22:23:00,75.7,59.9,29.94,SSW,202,0.0,4.0,58,0.00,,,-99.99,WeatherLink 5.7,2013-06-18 02:23:00,
2013-06-17 22:33:00,75.6,60.3,29.94,SSW,202,0.0,3.0,59,0.00,,,-99.99,WeatherLink 5.7,2013-06-18 02:33:00,
2013-06-17 22:43:00,75.4,60.1,29.94,SSW,202,0.0,2.0,59,0.00,,,-99.99,WeatherLink 5.7,2013-06-18 02:43:00,
2013-06-17 22:53:00,75.1,59.8,29.93,SSW,202,0.0,2.0,59,0.00,,,-99.99,WeatherLink 5.7,2013-06-18 02:53:00,
2013-06-17 23:03:00,74.8,60.0,29.94,SSW,202,0.0,2.0,60,0.00,,,-99.99,WeatherLink 5.7,2013-06-18 03:03:00,
2013-06-17 23:13:00,74.6,60.3,29.94,North,-999,0.0,0.0,61,0.00,,,-99.99,WeatherLink 5.7,2013-06-18 03:13:00,
2013-06-17 23:23:00,74.3,60.0,29.94,SSW,202,1.0,5.0,61,0.00,,,-99.99,WeatherLink 5.7,2013-06-18 03:23:00,
2013-06-17 23:33:00,74.2,60.8,29.93,SSW,202,1.0,5.0,63,0.00,,,-99.99,WeatherLink 5.7,2013-06-18 03:33:00,
2013-06-17 23:43:00,73.9,61.0,29.93,SSW,202,0.0,4.0,64,0.00,,,-99.99,WeatherLink 5.7,2013-06-18 03:43:00,
2013-06-17 23:53:00,73.6,61.1,29.93,SSW,202,1.0,4.0,65,0.00,,,-99.99,WeatherLink 5.7,2013-06-18 03:53:00,